createdAt,value
2022-08-07T00:00:20.586Z,47.89
2022-08-07T00:02:50.690Z,48.54
2022-08-07T00:05:23.876Z,49.34
2022-08-07T00:07:59.610Z,49.59
2022-08-07T00:10:32.139Z,48.53
2022-08-07T00:13:23.580Z,48.33
2022-08-07T00:15:52.572Z,47.27
2022-08-07T00:18:25.314Z,48.47
2022-08-07T00:21:01.429Z,47.01
2022-08-07T00:23:34.268Z,47.65
2022-08-07T00:26:18.777Z,47.90
2022-08-07T00:29:18.513Z,47.70
2022-08-07T00:31:53.677Z,49.12
2022-08-07T00:34:30.481Z,46.85
2022-08-07T00:37:05.003Z,47.35
2022-08-07T00:39:44.896Z,48.18
2022-08-07T00:42:12.834Z,46.46
2022-08-07T00:44:44.097Z,45.98
2022-08-07T00:47:16.096Z,46.34
2022-08-07T00:50:21.216Z,47.01
2022-08-07T00:52:58.937Z,46.09
2022-08-07T00:56:02.383Z,46.19
2022-08-07T00:58:19.273Z,45.14
2022-08-07T01:00:54.307Z,46.52
2022-08-07T01:03:55.830Z,47.17
2022-08-07T01:06:18.958Z,46.34
2022-08-07T01:08:53.379Z,46.33
2022-08-07T01:12:23.335Z,46.72
2022-08-07T01:14:11.026Z,47.45
2022-08-07T01:16:42.935Z,47.68
2022-08-07T01:19:19.251Z,46.64
2022-08-07T01:21:53.307Z,47.31
2022-08-07T01:24:22.568Z,46.84
2022-08-07T01:26:51.937Z,45.94
2022-08-07T01:29:31.519Z,46.06
2022-08-07T01:32:12.334Z,46.15
2022-08-07T01:34:47.286Z,45.77
2022-08-07T01:37:20.845Z,45.04
2022-08-07T01:39:54.209Z,45.66
2022-08-07T01:42:57.540Z,45.74
2022-08-07T01:45:37.142Z,45.65
2022-08-07T01:48:17.869Z,46.04
2022-08-07T01:51:39.261Z,45.84
2022-08-07T01:54:11.803Z,45.61
2022-08-07T01:56:58.909Z,46.40
2022-08-07T01:59:55.494Z,47.66
2022-08-07T02:03:18.232Z,47.27
2022-08-07T02:05:43.263Z,47.26
2022-08-07T02:08:23.843Z,46.74
2022-08-07T02:10:57.945Z,46.47
2022-08-07T02:13:56.766Z,47.69
2022-08-07T02:16:33.327Z,46.59
2022-08-07T02:20:05.551Z,47.12
2022-08-07T02:22:00.861Z,47.70
2022-08-07T02:24:30.586Z,48.21
2022-08-07T02:27:02.654Z,47.73
2022-08-07T02:29:32.208Z,47.86
2022-08-07T02:32:04.317Z,46.96
2022-08-07T02:34:32.659Z,47.71
2022-08-07T02:37:08.894Z,47.97
2022-08-07T02:40:02.247Z,47.89
2022-08-07T02:42:32.709Z,47.64
2022-08-07T02:45:07.292Z,47.53
2022-08-07T02:47:59.177Z,46.62
2022-08-07T02:50:34.219Z,47.36
2022-08-07T02:53:07.679Z,48.43
2022-08-07T02:56:03.662Z,47.30
2022-08-07T02:58:35.491Z,46.52
2022-08-07T03:01:19.134Z,47.01
2022-08-07T03:04:03.525Z,47.74
2022-08-07T03:06:37.134Z,46.64
2022-08-07T03:09:43.527Z,46.92
2022-08-07T03:12:08.078Z,45.99
2022-08-07T03:14:51.987Z,47.55
2022-08-07T03:17:25.377Z,46.37
2022-08-07T03:19:54.689Z,46.80
2022-08-07T03:22:29.527Z,47.94
2022-08-07T03:25:00.262Z,46.63
2022-08-07T03:28:09.382Z,46.41
2022-08-07T03:30:24.317Z,46.30
2022-08-07T03:32:58.256Z,47.78
2022-08-07T03:35:38.154Z,47.32
2022-08-07T03:38:21.438Z,46.71
2022-08-07T03:41:02.338Z,47.36
2022-08-07T03:43:36.041Z,46.54
2022-08-07T03:46:10.387Z,46.79
2022-08-07T03:49:03.020Z,45.60
2022-08-07T03:51:47.168Z,46.04
2022-08-07T03:54:35.507Z,45.10
2022-08-07T03:57:07.883Z,45.51
2022-08-07T03:59:36.562Z,46.15
2022-08-07T04:02:18.353Z,46.95
2022-08-07T04:04:49.834Z,46.09
2022-08-07T04:07:19.029Z,46.47
2022-08-07T04:09:53.638Z,47.85
2022-08-07T04:12:27.030Z,46.05
2022-08-07T04:14:57.958Z,46.41
2022-08-07T04:18:11.234Z,46.67
2022-08-07T04:20:16.749Z,46.23
2022-08-07T04:23:01.894Z,45.65
2022-08-07T04:25:39.409Z,46.58
2022-08-07T04:28:10.423Z,46.34
2022-08-07T04:30:55.491Z,47.22
2022-08-07T04:33:26.379Z,47.25
2022-08-07T04:35:59.544Z,47.42
2022-08-07T04:38:29.528Z,48.04
2022-08-07T04:40:57.493Z,48.37
2022-08-07T04:44:12.023Z,46.69
2022-08-07T04:46:34.626Z,46.64
2022-08-07T04:49:25.628Z,47.13
2022-08-07T04:52:03.595Z,46.79
2022-08-07T04:54:43.656Z,47.52
2022-08-07T04:58:16.753Z,47.34
2022-08-07T05:00:30.100Z,47.93
2022-08-07T05:03:17.010Z,47.87
2022-08-07T05:05:58.861Z,47.82
2022-08-07T05:09:01.230Z,47.32
2022-08-07T05:11:57.203Z,46.58
2022-08-07T05:14:53.824Z,47.35
2022-08-07T05:17:52.179Z,46.93
2022-08-07T05:20:25.636Z,46.64
2022-08-07T05:23:00.178Z,47.00
2022-08-07T05:26:10.182Z,47.59
2022-08-07T05:28:26.608Z,46.66
2022-08-07T05:30:58.672Z,45.71
2022-08-07T05:33:28.710Z,45.56
2022-08-07T05:36:00.590Z,47.06
2022-08-07T05:39:00.908Z,45.41
2022-08-07T05:41:21.697Z,45.38
2022-08-07T05:44:08.283Z,45.80
2022-08-07T05:46:41.163Z,46.38
2022-08-07T05:49:15.006Z,45.62
2022-08-07T05:51:51.005Z,46.95
2022-08-07T05:54:30.717Z,45.72
2022-08-07T05:57:04.350Z,45.21
2022-08-07T05:59:38.964Z,44.96
2022-08-07T06:02:28.865Z,44.80
2022-08-07T06:05:05.900Z,44.33
2022-08-07T06:08:09.275Z,44.10
2022-08-07T06:10:28.922Z,43.96
2022-08-07T06:13:02.073Z,44.21
2022-08-07T06:15:42.152Z,43.83
2022-08-07T06:18:14.012Z,43.67
2022-08-07T06:20:49.749Z,43.77
2022-08-07T06:24:37.008Z,44.03
2022-08-07T06:26:27.585Z,43.70
2022-08-07T06:29:01.119Z,43.36
2022-08-07T06:31:46.743Z,43.57
2022-08-07T06:34:19.456Z,43.47
2022-08-07T06:36:52.194Z,43.50
2022-08-07T06:40:18.023Z,43.11
2022-08-07T06:42:19.267Z,43.20
2022-08-07T06:44:54.321Z,43.07
2022-08-07T06:47:25.084Z,43.49
2022-08-07T06:49:58.973Z,43.79
2022-08-07T06:52:35.610Z,43.70
2022-08-07T06:55:34.298Z,43.57
2022-08-07T06:58:10.194Z,43.60
2022-08-07T07:00:42.471Z,43.28
2022-08-07T07:03:26.413Z,42.92
2022-08-07T07:06:10.984Z,43.68
2022-08-07T07:08:39.833Z,43.46
2022-08-07T07:12:08.894Z,42.32
2022-08-07T07:14:09.834Z,42.82
2022-08-07T07:16:49.819Z,42.78
2022-08-07T07:19:56.374Z,42.75
2022-08-07T07:22:36.138Z,42.82
2022-08-07T07:26:30.844Z,42.92
2022-08-07T07:28:29.830Z,42.49
2022-08-07T07:31:17.119Z,42.57
2022-08-07T07:33:56.933Z,41.26
2022-08-07T07:36:29.631Z,41.02
2022-08-07T07:39:04.601Z,40.59
2022-08-07T07:41:50.675Z,40.67
2022-08-07T07:44:25.780Z,40.43
2022-08-07T07:47:04.398Z,39.94
2022-08-07T07:50:33.277Z,40.48
2022-08-07T07:52:32.673Z,39.93
2022-08-07T07:55:01.217Z,39.93
2022-08-07T07:57:43.748Z,39.66
2022-08-07T08:00:29.723Z,39.36
2022-08-07T08:03:08.011Z,38.89
2022-08-07T08:05:50.807Z,38.83
2022-08-07T08:08:34.372Z,38.91
2022-08-07T08:11:13.535Z,38.73
2022-08-07T08:13:53.802Z,38.26
2022-08-07T08:16:29.875Z,38.53
2022-08-07T08:19:09.957Z,37.46
2022-08-07T08:22:10.622Z,38.14
2022-08-07T08:25:24.951Z,37.07
2022-08-07T08:27:57.154Z,37.71
2022-08-07T08:30:29.904Z,37.46
2022-08-07T08:33:03.259Z,37.18
2022-08-07T08:35:39.286Z,36.75
2022-08-07T08:38:21.474Z,36.57
2022-08-07T08:41:02.984Z,36.16
2022-08-07T08:43:42.443Z,36.74
2022-08-07T08:46:49.186Z,37.03
2022-08-07T08:49:33.548Z,36.95
2022-08-07T08:52:32.355Z,37.90
2022-08-07T08:55:53.829Z,36.70
2022-08-07T08:58:32.024Z,35.86
2022-08-07T09:01:24.259Z,37.17
2022-08-07T09:04:33.134Z,35.99
2022-08-07T09:07:25.354Z,34.00
2022-08-07T09:10:03.161Z,35.26
2022-08-07T09:12:53.348Z,35.34
2022-08-07T09:16:24.389Z,36.37
2022-08-07T09:19:00.508Z,36.01
2022-08-07T09:22:10.294Z,35.60
2022-08-07T09:24:56.071Z,35.59
2022-08-07T09:27:54.930Z,35.03
2022-08-07T09:31:04.169Z,35.18
2022-08-07T09:34:15.931Z,35.32
2022-08-07T09:36:46.832Z,34.82
2022-08-07T09:39:55.594Z,35.01
2022-08-07T09:42:24.871Z,35.33
2022-08-07T09:47:26.194Z,34.91
2022-08-07T09:48:20.378Z,35.20
2022-08-07T09:51:26.089Z,34.99
2022-08-07T09:54:03.409Z,34.38
2022-08-07T09:56:50.507Z,34.98
2022-08-07T10:00:00.816Z,35.52
2022-08-07T10:02:57.197Z,35.26
2022-08-07T10:06:00.108Z,34.91
2022-08-07T10:08:52.607Z,35.55
2022-08-07T10:12:03.336Z,35.62
2022-08-07T10:15:24.131Z,35.39
2022-08-07T10:18:18.218Z,35.09
2022-08-07T10:21:19.785Z,35.21
2022-08-07T10:24:27.099Z,35.32
2022-08-07T10:27:25.574Z,34.86
2022-08-07T10:30:12.415Z,34.69
2022-08-07T10:33:04.785Z,33.78
2022-08-07T10:36:14.618Z,34.87
2022-08-07T10:38:53.228Z,34.66
2022-08-07T10:41:51.697Z,34.45
2022-08-07T10:44:54.583Z,34.85
2022-08-07T10:47:52.949Z,34.78
2022-08-07T10:50:25.657Z,34.74
2022-08-07T10:53:09.221Z,35.08
2022-08-07T10:55:53.530Z,35.31
2022-08-07T10:58:47.666Z,34.78
2022-08-07T11:01:52.038Z,34.72
2022-08-07T11:04:34.607Z,34.63
2022-08-07T11:07:58.319Z,34.66
2022-08-07T11:10:52.309Z,34.87
2022-08-07T11:14:46.135Z,35.33
2022-08-07T11:16:29.963Z,33.62
2022-08-07T11:19:06.917Z,33.70
2022-08-07T11:21:44.818Z,32.97
2022-08-07T11:24:28.912Z,32.90
2022-08-07T11:27:20.976Z,32.27
2022-08-07T11:30:19.045Z,31.95
2022-08-07T11:33:07.936Z,31.50
2022-08-07T11:35:59.707Z,32.06
2022-08-07T11:38:50.676Z,31.85
2022-08-07T11:42:00.011Z,32.03
2022-08-07T11:44:25.208Z,31.22
2022-08-07T11:46:59.120Z,31.36
2022-08-07T11:50:30.162Z,31.49
2022-08-07T11:53:05.181Z,30.80
2022-08-07T11:56:09.114Z,30.10
2022-08-07T11:58:38.257Z,30.67
2022-08-07T12:01:59.963Z,30.76
2022-08-07T12:04:46.348Z,30.94
2022-08-07T12:07:27.311Z,30.47
2022-08-07T12:10:05.907Z,31.38
2022-08-07T12:12:45.711Z,32.09
2022-08-07T12:15:35.619Z,31.06
2022-08-07T12:18:16.121Z,31.45
2022-08-07T12:22:35.896Z,31.10
2022-08-07T12:25:08.043Z,30.45
2022-08-07T12:28:08.811Z,30.79
2022-08-07T12:30:32.571Z,31.48
2022-08-07T12:33:18.711Z,31.15
2022-08-07T12:35:58.022Z,30.75
2022-08-07T12:38:29.618Z,31.23
2022-08-07T12:41:09.868Z,31.94
2022-08-07T12:44:02.194Z,32.43
2022-08-07T12:46:36.817Z,32.79
2022-08-07T12:49:39.431Z,31.99
2022-08-07T12:52:18.185Z,31.18
2022-08-07T12:55:05.152Z,32.96
2022-08-07T12:57:59.374Z,32.42
2022-08-07T13:00:31.226Z,32.29
2022-08-07T13:03:56.140Z,32.16
2022-08-07T13:07:00.036Z,30.89
2022-08-07T13:10:19.994Z,31.47
2022-08-07T13:13:48.097Z,30.92
2022-08-07T13:16:12.171Z,32.03
2022-08-07T13:18:51.422Z,31.99
2022-08-07T13:21:50.393Z,30.96
2022-08-07T13:24:30.436Z,32.25
2022-08-07T13:27:06.579Z,31.18
2022-08-07T13:29:42.460Z,30.86
2022-08-07T13:32:39.905Z,31.06
2022-08-07T13:35:21.464Z,30.94
2022-08-07T13:37:58.939Z,31.40
2022-08-07T13:40:35.061Z,30.65
2022-08-07T13:43:15.241Z,30.65
2022-08-07T13:46:11.859Z,30.90
2022-08-07T13:48:35.053Z,30.27
2022-08-07T13:51:27.675Z,31.42
2022-08-07T13:54:03.288Z,30.12
2022-08-07T13:56:41.249Z,30.71
2022-08-07T13:59:25.751Z,30.59
2022-08-07T14:02:12.926Z,29.92
2022-08-07T14:04:49.442Z,29.65
2022-08-07T14:07:23.634Z,29.48
2022-08-07T14:10:17.347Z,29.84
2022-08-07T14:12:54.880Z,29.72
2022-08-07T14:15:43.509Z,29.05
2022-08-07T14:18:28.337Z,30.48
2022-08-07T14:22:02.553Z,29.67
2022-08-07T14:24:10.800Z,29.65
2022-08-07T14:26:50.491Z,30.02
2022-08-07T14:30:05.897Z,30.28
2022-08-07T14:32:15.182Z,29.54
2022-08-07T14:34:46.411Z,29.65
2022-08-07T14:37:18.657Z,29.49
2022-08-07T14:40:18.044Z,29.70
2022-08-07T14:43:00.955Z,29.80
2022-08-07T14:48:27.640Z,29.22
2022-08-07T14:51:00.079Z,29.22
2022-08-07T14:54:05.839Z,29.06
2022-08-07T14:56:29.819Z,28.70
2022-08-07T14:59:13.661Z,29.18
2022-08-07T15:01:53.462Z,30.06
2022-08-07T15:04:26.293Z,29.96
2022-08-07T15:06:57.448Z,29.02
2022-08-07T15:09:47.125Z,28.92
2022-08-07T15:12:26.165Z,28.24
2022-08-07T15:15:09.255Z,28.34
2022-08-07T15:17:58.909Z,28.27
2022-08-07T15:20:54.932Z,29.33
2022-08-07T15:25:02.790Z,28.77
2022-08-07T15:26:22.504Z,28.01
2022-08-07T15:30:03.681Z,28.35
2022-08-07T15:32:01.696Z,28.21
2022-08-07T15:34:50.206Z,28.65
2022-08-07T15:37:27.819Z,28.22
2022-08-07T15:39:59.002Z,28.45
2022-08-07T15:45:55.683Z,28.90
2022-08-07T15:48:30.558Z,29.44
2022-08-07T15:51:08.609Z,28.86
2022-08-07T15:53:52.719Z,28.59
2022-08-07T15:56:34.936Z,28.86
2022-08-07T15:59:16.270Z,28.99
2022-08-07T16:02:02.258Z,28.83
2022-08-07T16:04:32.412Z,28.80
2022-08-07T16:07:04.607Z,30.00
2022-08-07T16:09:41.881Z,29.25
2022-08-07T16:12:28.771Z,29.17
2022-08-07T16:15:06.930Z,29.34
2022-08-07T16:18:00.749Z,29.25
2022-08-07T16:22:01.606Z,30.34
2022-08-07T16:24:33.718Z,30.21
2022-08-07T16:27:18.223Z,30.18
2022-08-07T16:30:30.533Z,30.10
2022-08-07T16:32:59.762Z,30.24
2022-08-07T16:35:52.324Z,30.75
2022-08-07T16:39:01.048Z,31.04
2022-08-07T16:42:00.519Z,30.85
2022-08-07T16:45:19.298Z,30.49
2022-08-07T16:48:28.427Z,31.02
2022-08-07T16:51:54.076Z,30.46
2022-08-07T16:54:55.487Z,30.78
2022-08-07T16:58:02.034Z,31.65
2022-08-07T17:00:41.122Z,31.49
2022-08-07T17:03:17.132Z,31.05
2022-08-07T17:06:29.333Z,31.18
2022-08-07T17:09:14.017Z,31.48
2022-08-07T17:12:04.815Z,30.96
2022-08-07T17:14:36.511Z,31.48
2022-08-07T17:17:09.994Z,31.22
2022-08-07T17:20:02.332Z,31.10
2022-08-07T17:22:46.241Z,31.14
2022-08-07T17:25:20.094Z,30.98
2022-08-07T17:28:14.162Z,30.62
2022-08-07T17:30:59.118Z,30.70
2022-08-07T17:34:08.989Z,30.56
2022-08-07T17:36:26.150Z,30.32
2022-08-07T17:38:59.807Z,30.51
2022-08-07T17:42:04.732Z,30.54
2022-08-07T17:44:55.808Z,30.82
2022-08-07T17:47:42.447Z,30.50
2022-08-07T17:50:31.123Z,30.47
2022-08-07T17:53:09.100Z,30.43
2022-08-07T17:56:26.139Z,30.53
2022-08-07T17:58:56.882Z,30.56
2022-08-07T18:01:36.831Z,30.75
2022-08-07T18:04:34.517Z,30.65
2022-08-07T18:07:22.514Z,30.70
2022-08-07T18:10:31.937Z,30.96
2022-08-07T18:13:00.675Z,30.92
2022-08-07T18:15:32.878Z,30.97
2022-08-07T18:18:46.177Z,31.08
2022-08-07T18:21:41.365Z,31.34
2022-08-07T18:24:33.759Z,31.43
2022-08-07T18:27:40.262Z,31.70
2022-08-07T18:30:30.833Z,31.66
2022-08-07T18:33:16.638Z,31.89
2022-08-07T18:36:03.454Z,32.83
2022-08-07T18:38:59.651Z,32.52
2022-08-07T18:41:45.475Z,32.16
2022-08-07T18:45:43.006Z,32.19
2022-08-07T18:50:05.355Z,32.77
2022-08-07T18:52:34.997Z,32.76
2022-08-07T18:54:27.854Z,32.83
2022-08-07T18:57:58.725Z,33.95
2022-08-07T19:00:55.126Z,34.00
2022-08-07T19:03:38.845Z,33.84
2022-08-07T19:06:33.722Z,33.61
2022-08-07T19:09:57.717Z,34.63
2022-08-07T19:12:27.126Z,34.77
2022-08-07T19:16:05.929Z,33.99
2022-08-07T19:18:34.449Z,33.85
2022-08-07T19:21:14.546Z,33.75
2022-08-07T19:24:00.367Z,33.69
2022-08-07T19:27:09.509Z,33.92
2022-08-07T19:31:00.764Z,34.12
2022-08-07T19:32:39.466Z,34.54
2022-08-07T19:35:33.032Z,35.18
2022-08-07T19:38:16.664Z,35.16
2022-08-07T19:40:49.704Z,33.88
2022-08-07T19:43:49.000Z,35.25
2022-08-07T19:46:14.541Z,35.06
2022-08-07T19:48:53.648Z,34.81
2022-08-07T19:51:52.812Z,34.72
2022-08-07T19:54:33.484Z,34.51
2022-08-07T19:58:03.205Z,33.77
2022-08-07T20:00:08.806Z,33.85
2022-08-07T20:02:52.179Z,33.21
2022-08-07T20:05:30.413Z,33.46
2022-08-07T20:08:25.273Z,32.54
2022-08-07T20:11:03.716Z,31.57
2022-08-07T20:13:42.595Z,30.47
2022-08-07T20:16:15.850Z,30.04
2022-08-07T20:19:02.287Z,31.19
2022-08-07T20:21:42.160Z,29.96
2022-08-07T20:24:28.666Z,29.78
2022-08-07T20:27:03.079Z,30.71
2022-08-07T20:29:48.274Z,29.64
2022-08-07T20:32:25.446Z,29.85
2022-08-07T20:34:54.812Z,30.15
2022-08-07T20:37:29.480Z,29.17
2022-08-07T20:40:03.913Z,29.27
2022-08-07T20:42:33.657Z,29.35
2022-08-07T20:45:04.359Z,29.89
2022-08-07T20:47:56.349Z,29.76
2022-08-07T20:50:28.974Z,29.63
2022-08-07T20:52:58.816Z,29.08
2022-08-07T20:55:32.186Z,29.61
2022-08-07T20:58:12.048Z,29.67
2022-08-07T21:00:53.961Z,28.98
2022-08-07T21:03:23.038Z,29.09
2022-08-07T21:05:57.066Z,30.23
2022-08-07T21:08:38.068Z,29.86
2022-08-07T21:11:14.601Z,29.94
2022-08-07T21:14:16.881Z,29.76
2022-08-07T21:16:55.874Z,29.78
2022-08-07T21:19:32.378Z,29.98
2022-08-07T21:22:19.361Z,30.13
2022-08-07T21:25:12.343Z,29.97
2022-08-07T21:27:53.737Z,29.97
2022-08-07T21:30:30.142Z,29.68
2022-08-07T21:33:09.317Z,30.11
2022-08-07T21:36:05.202Z,31.16
2022-08-07T21:38:49.928Z,30.46
2022-08-07T21:41:37.804Z,31.08
2022-08-07T21:44:39.870Z,30.46
2022-08-07T21:47:16.259Z,31.17
2022-08-07T21:50:05.341Z,31.47
2022-08-07T21:52:54.580Z,32.24
2022-08-07T21:55:31.037Z,31.66
2022-08-07T21:58:06.785Z,31.01
2022-08-07T22:00:38.085Z,31.83
2022-08-07T22:03:30.807Z,31.42
2022-08-07T22:06:06.421Z,31.78
2022-08-07T22:08:39.716Z,31.96
2022-08-07T22:11:11.240Z,30.71
2022-08-07T22:13:50.215Z,31.72
2022-08-07T22:16:39.738Z,31.88
2022-08-07T22:19:23.598Z,31.82
2022-08-07T22:22:17.786Z,30.92
2022-08-07T22:24:54.655Z,30.96
2022-08-07T22:28:08.320Z,31.34
2022-08-07T22:30:52.948Z,31.15
2022-08-07T22:33:53.680Z,30.84
2022-08-07T22:36:59.656Z,31.27
2022-08-07T22:39:52.530Z,30.57
2022-08-07T22:42:25.580Z,30.78
2022-08-07T22:46:04.566Z,31.16
2022-08-07T22:49:00.460Z,30.82
2022-08-07T22:51:49.242Z,30.46
2022-08-07T22:54:48.965Z,30.87
2022-08-07T22:57:48.588Z,30.51
2022-08-07T23:00:28.184Z,30.46
2022-08-07T23:03:18.381Z,30.75
2022-08-07T23:06:37.629Z,30.64
2022-08-07T23:10:04.645Z,31.10
2022-08-07T23:12:34.027Z,31.28
2022-08-07T23:16:04.547Z,32.19
2022-08-07T23:18:14.014Z,32.40
2022-08-07T23:21:10.560Z,32.50
2022-08-07T23:24:11.442Z,33.10
2022-08-07T23:27:33.910Z,32.72
2022-08-07T23:30:35.756Z,33.07
2022-08-07T23:34:21.777Z,33.31
2022-08-07T23:36:28.979Z,33.39
2022-08-07T23:39:14.452Z,33.67
2022-08-07T23:42:04.672Z,33.98
2022-08-07T23:44:51.463Z,34.12
2022-08-07T23:47:46.579Z,34.08
2022-08-07T23:50:41.869Z,34.30
2022-08-07T23:53:21.321Z,34.77
2022-08-07T23:56:12.118Z,35.00
2022-08-07T23:59:10.330Z,35.64
